sensor_id;sensor_type;location;lat;lon;timestamp;pressure;altitude;pressure_sealevel;temperature;humidity
64853;BME280;56050;55.558;-4.644;2023-05-18T00:01:11;102721.63;;;15.65;58.26
64853;BME280;56050;55.558;-4.644;2023-05-18T00:03:38;102723.19;;;15.66;58.28
64853;BME280;56050;55.558;-4.644;2023-05-18T00:06:04;102722.44;;;15.65;58.29
64853;BME280;56050;55.558;-4.644;2023-05-18T00:08:33;102723.97;;;15.63;58.27
64853;BME280;56050;55.558;-4.644;2023-05-18T00:11:00;102723.13;;;15.59;58.27
64853;BME280;56050;55.558;-4.644;2023-05-18T00:13:25;102721.09;;;15.52;58.12
64853;BME280;56050;55.558;-4.644;2023-05-18T00:15:51;102721.00;;;15.45;58.54
64853;BME280;56050;55.558;-4.644;2023-05-18T00:18:16;102717.78;;;15.36;58.75
64853;BME280;56050;55.558;-4.644;2023-05-18T00:20:42;102716.53;;;15.30;58.47
64853;BME280;56050;55.558;-4.644;2023-05-18T00:23:08;102711.81;;;15.23;58.56
64853;BME280;56050;55.558;-4.644;2023-05-18T00:25:34;102711.34;;;15.18;58.90
64853;BME280;56050;55.558;-4.644;2023-05-18T00:28:00;102707.44;;;15.15;58.68
64853;BME280;56050;55.558;-4.644;2023-05-18T00:30:25;102711.63;;;15.09;58.98
64853;BME280;56050;55.558;-4.644;2023-05-18T00:32:51;102713.50;;;15.05;58.64
64853;BME280;56050;55.558;-4.644;2023-05-18T00:35:16;102710.75;;;15.02;58.76
64853;BME280;56050;55.558;-4.644;2023-05-18T00:37:42;102712.28;;;14.99;58.90
64853;BME280;56050;55.558;-4.644;2023-05-18T00:40:08;102714.16;;;14.95;58.96
64853;BME280;56050;55.558;-4.644;2023-05-18T00:42:33;102710.25;;;14.93;58.81
64853;BME280;56050;55.558;-4.644;2023-05-18T00:44:59;102709.09;;;14.94;59.06
64853;BME280;56050;55.558;-4.644;2023-05-18T00:47:25;102703.28;;;14.95;58.82
64853;BME280;56050;55.558;-4.644;2023-05-18T00:49:51;102706.00;;;14.95;58.82
64853;BME280;56050;55.558;-4.644;2023-05-18T00:52:17;102695.47;;;14.90;58.96
64853;BME280;56050;55.558;-4.644;2023-05-18T00:54:42;102695.38;;;14.83;58.87
64853;BME280;56050;55.558;-4.644;2023-05-18T00:57:08;102698.38;;;14.75;59.23
64853;BME280;56050;55.558;-4.644;2023-05-18T00:59:34;102697.47;;;14.67;59.17
64853;BME280;56050;55.558;-4.644;2023-05-18T01:01:59;102700.81;;;14.57;59.30
64853;BME280;56050;55.558;-4.644;2023-05-18T01:04:25;102696.03;;;14.47;59.48
64853;BME280;56050;55.558;-4.644;2023-05-18T01:06:54;102696.28;;;14.38;59.53
64853;BME280;56050;55.558;-4.644;2023-05-18T01:09:21;102695.31;;;14.31;59.82
64853;BME280;56050;55.558;-4.644;2023-05-18T01:12:09;102698.34;;;14.26;59.79
64853;BME280;56050;55.558;-4.644;2023-05-18T01:15:12;102695.94;;;14.21;60.08
64853;BME280;56050;55.558;-4.644;2023-05-18T01:28:20;102704.19;;;13.82;60.70
64853;BME280;56050;55.558;-4.644;2023-05-18T01:30:51;102697.06;;;13.74;60.78
64853;BME280;56050;55.558;-4.644;2023-05-18T01:33:17;102702.78;;;13.69;61.06
64853;BME280;56050;55.558;-4.644;2023-05-18T01:35:42;102703.50;;;13.66;60.98
64853;BME280;56050;55.558;-4.644;2023-05-18T01:38:19;102703.44;;;13.63;61.07
64853;BME280;56050;55.558;-4.644;2023-05-18T01:43:28;102695.19;;;13.56;61.40
64853;BME280;56050;55.558;-4.644;2023-05-18T01:46:02;102696.31;;;13.54;61.29
64853;BME280;56050;55.558;-4.644;2023-05-18T01:48:29;102697.44;;;13.53;61.30
64853;BME280;56050;55.558;-4.644;2023-05-18T01:50:57;102694.72;;;13.53;61.19
64853;BME280;56050;55.558;-4.644;2023-05-18T01:53:38;102690.91;;;13.54;61.45
64853;BME280;56050;55.558;-4.644;2023-05-18T01:56:07;102689.88;;;13.63;61.19
64853;BME280;56050;55.558;-4.644;2023-05-18T01:58:36;102683.03;;;13.69;60.97
64853;BME280;56050;55.558;-4.644;2023-05-18T02:01:03;102685.09;;;13.75;60.95
64853;BME280;56050;55.558;-4.644;2023-05-18T02:03:31;102688.22;;;13.77;60.96
64853;BME280;56050;55.558;-4.644;2023-05-18T02:05:56;102685.22;;;13.82;60.85
64853;BME280;56050;55.558;-4.644;2023-05-18T02:08:21;102689.22;;;13.88;60.72
64853;BME280;56050;55.558;-4.644;2023-05-18T02:10:47;102692.34;;;13.90;60.74
64853;BME280;56050;55.558;-4.644;2023-05-18T02:13:12;102696.16;;;13.89;60.71
64853;BME280;56050;55.558;-4.644;2023-05-18T02:15:38;102703.16;;;13.90;60.67
64853;BME280;56050;55.558;-4.644;2023-05-18T02:18:03;102693.47;;;13.89;60.83
64853;BME280;56050;55.558;-4.644;2023-05-18T02:20:29;102692.34;;;13.90;60.80
64853;BME280;56050;55.558;-4.644;2023-05-18T02:22:57;102700.16;;;13.95;60.90
64853;BME280;56050;55.558;-4.644;2023-05-18T02:25:23;102699.09;;;14.00;60.88
64853;BME280;56050;55.558;-4.644;2023-05-18T02:27:49;102695.69;;;14.06;60.84
64853;BME280;56050;55.558;-4.644;2023-05-18T02:30:14;102700.06;;;14.11;60.80
64853;BME280;56050;55.558;-4.644;2023-05-18T02:32:40;102691.56;;;14.12;60.71
64853;BME280;56050;55.558;-4.644;2023-05-18T02:35:07;102686.53;;;14.14;60.51
64853;BME280;56050;55.558;-4.644;2023-05-18T02:37:33;102687.00;;;14.17;60.62
64853;BME280;56050;55.558;-4.644;2023-05-18T02:40:03;102680.41;;;14.18;60.63
64853;BME280;56050;55.558;-4.644;2023-05-18T02:42:29;102678.84;;;14.17;60.33
64853;BME280;56050;55.558;-4.644;2023-05-18T02:44:56;102677.28;;;14.16;60.51
64853;BME280;56050;55.558;-4.644;2023-05-18T02:47:21;102677.28;;;14.16;60.40
64853;BME280;56050;55.558;-4.644;2023-05-18T02:49:47;102683.91;;;14.18;60.62
64853;BME280;56050;55.558;-4.644;2023-05-18T02:52:12;102677.34;;;14.19;60.56
64853;BME280;56050;55.558;-4.644;2023-05-18T02:54:37;102676.97;;;14.21;60.58
64853;BME280;56050;55.558;-4.644;2023-05-18T02:57:03;102677.75;;;14.21;60.44
64853;BME280;56050;55.558;-4.644;2023-05-18T02:59:28;102676.56;;;14.19;60.71
64853;BME280;56050;55.558;-4.644;2023-05-18T03:01:54;102668.00;;;14.17;60.77
64853;BME280;56050;55.558;-4.644;2023-05-18T03:04:19;102675.69;;;14.14;60.79
64853;BME280;56050;55.558;-4.644;2023-05-18T03:06:46;102678.00;;;14.12;60.45
64853;BME280;56050;55.558;-4.644;2023-05-18T03:09:11;102673.72;;;14.11;60.60
64853;BME280;56050;55.558;-4.644;2023-05-18T03:11:37;102666.75;;;14.10;60.63
64853;BME280;56050;55.558;-4.644;2023-05-18T03:14:02;102667.09;;;14.09;60.66
64853;BME280;56050;55.558;-4.644;2023-05-18T03:16:27;102672.47;;;14.05;60.51
64853;BME280;56050;55.558;-4.644;2023-05-18T03:18:54;102664.28;;;14.02;60.72
64853;BME280;56050;55.558;-4.644;2023-05-18T03:21:19;102660.72;;;13.98;60.70
64853;BME280;56050;55.558;-4.644;2023-05-18T03:23:46;102664.94;;;13.95;60.85
64853;BME280;56050;55.558;-4.644;2023-05-18T03:26:11;102664.50;;;13.93;60.86
64853;BME280;56050;55.558;-4.644;2023-05-18T03:28:40;102656.31;;;13.90;61.04
64853;BME280;56050;55.558;-4.644;2023-05-18T03:31:05;102663.63;;;13.86;61.01
64853;BME280;56050;55.558;-4.644;2023-05-18T03:33:31;102665.06;;;13.80;61.10
64853;BME280;56050;55.558;-4.644;2023-05-18T03:36:01;102666.56;;;13.77;61.17
64853;BME280;56050;55.558;-4.644;2023-05-18T03:38:26;102657.22;;;13.75;61.12
64853;BME280;56050;55.558;-4.644;2023-05-18T03:40:52;102669.63;;;13.76;61.07
64853;BME280;56050;55.558;-4.644;2023-05-18T03:43:17;102659.56;;;13.76;61.28
64853;BME280;56050;55.558;-4.644;2023-05-18T03:45:43;102656.06;;;13.76;61.34
64853;BME280;56050;55.558;-4.644;2023-05-18T03:48:08;102655.31;;;13.75;61.23
64853;BME280;56050;55.558;-4.644;2023-05-18T03:50:33;102663.84;;;13.77;61.39
64853;BME280;56050;55.558;-4.644;2023-05-18T03:52:59;102653.44;;;13.79;61.28
64853;BME280;56050;55.558;-4.644;2023-05-18T03:55:24;102659.25;;;13.81;61.32
64853;BME280;56050;55.558;-4.644;2023-05-18T03:57:50;102661.25;;;13.84;61.23
64853;BME280;56050;55.558;-4.644;2023-05-18T04:00:18;102660.19;;;13.89;61.38
64853;BME280;56050;55.558;-4.644;2023-05-18T04:02:43;102662.13;;;13.88;61.27
64853;BME280;56050;55.558;-4.644;2023-05-18T04:05:08;102667.94;;;13.90;61.28
64853;BME280;56050;55.558;-4.644;2023-05-18T04:07:34;102663.66;;;13.89;61.37
64853;BME280;56050;55.558;-4.644;2023-05-18T04:10:10;102666.75;;;13.88;61.29
64853;BME280;56050;55.558;-4.644;2023-05-18T04:12:36;102661.66;;;13.86;61.19
64853;BME280;56050;55.558;-4.644;2023-05-18T04:15:02;102666.69;;;13.84;61.39
64853;BME280;56050;55.558;-4.644;2023-05-18T04:17:28;102661.97;;;13.81;61.23
64853;BME280;56050;55.558;-4.644;2023-05-18T04:19:54;102665.06;;;13.80;61.49
64853;BME280;56050;55.558;-4.644;2023-05-18T04:22:20;102666.56;;;13.77;61.46
64853;BME280;56050;55.558;-4.644;2023-05-18T04:24:46;102663.00;;;13.73;61.47
64853;BME280;56050;55.558;-4.644;2023-05-18T04:27:13;102666.41;;;13.70;61.71
64853;BME280;56050;55.558;-4.644;2023-05-18T04:29:39;102663.28;;;13.68;61.63
64853;BME280;56050;55.558;-4.644;2023-05-18T04:32:08;102663.66;;;13.67;61.53
64853;BME280;56050;55.558;-4.644;2023-05-18T04:34:35;102658.59;;;13.65;61.70
64853;BME280;56050;55.558;-4.644;2023-05-18T04:37:05;102669.00;;;13.63;61.76
64853;BME280;56050;55.558;-4.644;2023-05-18T04:39:33;102664.31;;;13.60;61.75
64853;BME280;56050;55.558;-4.644;2023-05-18T04:41:59;102658.47;;;13.58;61.94
64853;BME280;56050;55.558;-4.644;2023-05-18T04:44:28;102665.75;;;13.54;61.90
64853;BME280;56050;55.558;-4.644;2023-05-18T04:46:54;102664.53;;;13.51;61.71
64853;BME280;56050;55.558;-4.644;2023-05-18T04:49:20;102658.28;;;13.47;61.78
64853;BME280;56050;55.558;-4.644;2023-05-18T04:51:51;102660.53;;;13.45;62.00
64853;BME280;56050;55.558;-4.644;2023-05-18T04:54:23;102657.41;;;13.43;62.09
64853;BME280;56050;55.558;-4.644;2023-05-18T04:56:49;102660.50;;;13.42;62.29
64853;BME280;56050;55.558;-4.644;2023-05-18T04:59:15;102665.91;;;13.42;62.10
64853;BME280;56050;55.558;-4.644;2023-05-18T05:01:40;102662.41;;;13.41;62.17
64853;BME280;56050;55.558;-4.644;2023-05-18T05:04:06;102670.53;;;13.41;62.33
64853;BME280;56050;55.558;-4.644;2023-05-18T05:06:31;102671.66;;;13.40;62.07
64853;BME280;56050;55.558;-4.644;2023-05-18T05:08:56;102666.63;;;13.39;62.25
64853;BME280;56050;55.558;-4.644;2023-05-18T05:11:22;102668.13;;;13.36;62.16
64853;BME280;56050;55.558;-4.644;2023-05-18T05:13:47;102669.66;;;13.37;62.43
64853;BME280;56050;55.558;-4.644;2023-05-18T05:16:13;102665.03;;;13.38;62.33
64853;BME280;56050;55.558;-4.644;2023-05-18T05:18:38;102666.19;;;13.37;62.34
64853;BME280;56050;55.558;-4.644;2023-05-18T05:21:04;102666.19;;;13.37;62.30
64853;BME280;56050;55.558;-4.644;2023-05-18T05:23:30;102660.75;;;13.37;62.43
64853;BME280;56050;55.558;-4.644;2023-05-18T05:25:56;102663.47;;;13.37;62.61
64853;BME280;56050;55.558;-4.644;2023-05-18T05:28:21;102668.53;;;13.38;62.64
64853;BME280;56050;55.558;-4.644;2023-05-18T05:30:47;102668.53;;;13.38;62.53
64853;BME280;56050;55.558;-4.644;2023-05-18T05:33:12;102665.84;;;13.38;62.75
64853;BME280;56050;55.558;-4.644;2023-05-18T05:35:38;102673.97;;;13.38;62.90
64853;BME280;56050;55.558;-4.644;2023-05-18T05:38:03;102668.97;;;13.40;63.02
64853;BME280;56050;55.558;-4.644;2023-05-18T05:40:29;102665.53;;;13.43;62.87
64853;BME280;56050;55.558;-4.644;2023-05-18T05:42:55;102668.66;;;13.45;62.91
64853;BME280;56050;55.558;-4.644;2023-05-18T05:45:20;102675.28;;;13.48;62.97
64853;BME280;56050;55.558;-4.644;2023-05-18T05:47:46;102667.63;;;13.50;63.13
64853;BME280;56050;55.558;-4.644;2023-05-18T05:50:13;102670.75;;;13.52;63.03
64853;BME280;56050;55.558;-4.644;2023-05-18T05:52:38;102674.66;;;13.54;63.08
64853;BME280;56050;55.558;-4.644;2023-05-18T05:55:04;102671.22;;;13.58;63.27
64853;BME280;56050;55.558;-4.644;2023-05-18T05:57:30;102667.00;;;13.60;63.06
64853;BME280;56050;55.558;-4.644;2023-05-18T05:59:55;102674.06;;;13.65;63.18
64853;BME280;56050;55.558;-4.644;2023-05-18T06:02:21;102676.50;;;13.70;63.33
64853;BME280;56050;55.558;-4.644;2023-05-18T06:04:46;102671.56;;;13.75;63.15
64853;BME280;56050;55.558;-4.644;2023-05-18T06:07:12;102676.22;;;13.78;63.07
64853;BME280;56050;55.558;-4.644;2023-05-18T06:09:37;102673.59;;;13.82;63.13
64853;BME280;56050;55.558;-4.644;2023-05-18T06:12:03;102672.09;;;13.84;63.23
64853;BME280;56050;55.558;-4.644;2023-05-18T06:14:29;102667.53;;;13.88;63.28
64853;BME280;56050;55.558;-4.644;2023-05-18T06:16:54;102672.66;;;13.93;63.10
64853;BME280;56050;55.558;-4.644;2023-05-18T06:19:20;102672.75;;;14.00;63.12
64853;BME280;56050;55.558;-4.644;2023-05-18T06:21:45;102665.88;;;14.06;63.33
64853;BME280;56050;55.558;-4.644;2023-05-18T06:24:10;102664.03;;;14.10;63.09
64853;BME280;56050;55.558;-4.644;2023-05-18T06:26:36;102675.38;;;14.20;63.09
64853;BME280;56050;55.558;-4.644;2023-05-18T06:29:01;102662.69;;;14.24;62.95
64853;BME280;56050;55.558;-4.644;2023-05-18T06:31:27;102663.88;;;14.26;63.20
64853;BME280;56050;55.558;-4.644;2023-05-18T06:33:52;102664.31;;;14.28;62.99
64853;BME280;56050;55.558;-4.644;2023-05-18T06:36:18;102665.97;;;14.33;63.03
64853;BME280;56050;55.558;-4.644;2023-05-18T06:38:43;102669.50;;;14.37;63.01
64853;BME280;56050;55.558;-4.644;2023-05-18T06:41:08;102673.06;;;14.41;63.15
64853;BME280;56050;55.558;-4.644;2023-05-18T06:43:34;102671.16;;;14.45;63.13
64853;BME280;56050;55.558;-4.644;2023-05-18T06:46:00;102672.44;;;14.51;63.22
64853;BME280;56050;55.558;-4.644;2023-05-18T06:48:27;102678.75;;;14.58;63.01
64853;BME280;56050;55.558;-4.644;2023-05-18T06:50:53;102678.13;;;14.68;63.08
64853;BME280;56050;55.558;-4.644;2023-05-18T06:53:19;102673.63;;;14.80;62.82
64853;BME280;56050;55.558;-4.644;2023-05-18T06:55:45;102681.53;;;14.92;62.94
64853;BME280;56050;55.558;-4.644;2023-05-18T06:58:10;102675.50;;;15.05;62.92
64853;BME280;56050;55.558;-4.644;2023-05-18T07:00:36;102681.53;;;15.21;62.79
64853;BME280;56050;55.558;-4.644;2023-05-18T07:03:02;102677.38;;;15.31;62.54
64853;BME280;56050;55.558;-4.644;2023-05-18T07:05:27;102680.59;;;15.40;62.32
64853;BME280;56050;55.558;-4.644;2023-05-18T07:07:54;102680.69;;;15.47;62.28
64853;BME280;56050;55.558;-4.644;2023-05-18T07:10:19;102682.72;;;15.54;62.30
64853;BME280;56050;55.558;-4.644;2023-05-18T07:12:47;102681.59;;;15.58;62.06
64853;BME280;56050;55.558;-4.644;2023-05-18T07:15:12;102678.91;;;15.62;62.06
64853;BME280;56050;55.558;-4.644;2023-05-18T07:17:37;102682.81;;;15.64;62.18
64853;BME280;56050;55.558;-4.644;2023-05-18T07:20:04;102687.88;;;15.66;62.11
64853;BME280;56050;55.558;-4.644;2023-05-18T07:22:31;102680.53;;;15.70;61.78
64853;BME280;56050;55.558;-4.644;2023-05-18T07:24:57;102684.09;;;15.74;61.80
64853;BME280;56050;55.558;-4.644;2023-05-18T07:27:23;102687.22;;;15.76;61.97
64853;BME280;56050;55.558;-4.644;2023-05-18T07:29:48;102684.94;;;15.81;61.72
64853;BME280;56050;55.558;-4.644;2023-05-18T07:32:14;102681.81;;;15.83;61.67
64853;BME280;56050;55.558;-4.644;2023-05-18T07:34:39;102689.63;;;15.88;61.59
64853;BME280;56050;55.558;-4.644;2023-05-18T07:37:07;102685.41;;;15.91;61.63
64853;BME280;56050;55.558;-4.644;2023-05-18T07:39:33;102685.88;;;16.00;61.70
64853;BME280;56050;55.558;-4.644;2023-05-18T07:41:58;102688.66;;;16.10;61.32
64853;BME280;56050;55.558;-4.644;2023-05-18T07:44:24;102690.72;;;16.20;61.43
64853;BME280;56050;55.558;-4.644;2023-05-18T07:46:50;102692.38;;;16.32;61.34
64853;BME280;56050;55.558;-4.644;2023-05-18T07:49:15;102693.63;;;16.45;61.39
64853;BME280;56050;55.558;-4.644;2023-05-18T07:51:41;102692.56;;;16.57;61.24
64853;BME280;56050;55.558;-4.644;2023-05-18T07:54:06;102693.41;;;16.68;61.05
64853;BME280;56050;55.558;-4.644;2023-05-18T07:56:31;102702.03;;;16.80;60.89
64853;BME280;56050;55.558;-4.644;2023-05-18T07:58:57;102692.00;;;16.91;60.50
64853;BME280;56050;55.558;-4.644;2023-05-18T08:01:22;102691.63;;;16.96;60.46
64853;BME280;56050;55.558;-4.644;2023-05-18T08:03:52;102686.97;;;17.04;60.61
64853;BME280;56050;55.558;-4.644;2023-05-18T08:06:19;102693.22;;;17.08;59.96
64853;BME280;56050;55.558;-4.644;2023-05-18T08:08:44;102696.34;;;17.07;59.73
64853;BME280;56050;55.558;-4.644;2023-05-18T08:11:10;102688.53;;;17.01;59.93
64853;BME280;56050;55.558;-4.644;2023-05-18T08:13:35;102692.06;;;17.06;60.02
64853;BME280;56050;55.558;-4.644;2023-05-18T08:16:00;102699.47;;;17.09;60.12
64853;BME280;56050;55.558;-4.644;2023-05-18T08:18:26;102696.78;;;17.12;59.61
64853;BME280;56050;55.558;-4.644;2023-05-18T08:20:52;102700.66;;;17.11;59.74
64853;BME280;56050;55.558;-4.644;2023-05-18T08:23:18;102703.38;;;17.11;59.80
64853;BME280;56050;55.558;-4.644;2023-05-18T08:25:43;102700.25;;;17.09;59.80
64853;BME280;56050;55.558;-4.644;2023-05-18T08:28:09;102702.56;;;17.07;59.25
64853;BME280;56050;55.558;-4.644;2023-05-18T08:30:35;102703.69;;;16.99;59.39
64853;BME280;56050;55.558;-4.644;2023-05-18T08:33:00;102711.84;;;16.95;59.39
64853;BME280;56050;55.558;-4.644;2023-05-18T08:35:25;102710.66;;;16.93;59.49
64853;BME280;56050;55.558;-4.644;2023-05-18T08:37:51;102708.28;;;16.88;59.40
64853;BME280;56050;55.558;-4.644;2023-05-18T08:40:17;102708.28;;;16.81;59.41
64853;BME280;56050;55.558;-4.644;2023-05-18T08:42:50;102707.44;;;16.77;59.42
64853;BME280;56050;55.558;-4.644;2023-05-18T08:45:35;102702.41;;;16.75;59.39
64853;BME280;56050;55.558;-4.644;2023-05-18T08:48:02;102702.44;;;16.79;59.61
64853;BME280;56050;55.558;-4.644;2023-05-18T08:50:30;102702.47;;;16.86;59.71
64853;BME280;56050;55.558;-4.644;2023-05-18T08:53:00;102706.78;;;16.94;59.52
64853;BME280;56050;55.558;-4.644;2023-05-18T08:55:29;102692.78;;;16.99;59.33
64853;BME280;56050;55.558;-4.644;2023-05-18T08:58:01;102697.13;;;17.03;59.37
64853;BME280;56050;55.558;-4.644;2023-05-18T09:00:27;102695.16;;;17.04;59.32
64853;BME280;56050;55.558;-4.644;2023-05-18T09:02:53;102707.22;;;17.03;58.92
64853;BME280;56050;55.558;-4.644;2023-05-18T09:05:19;102693.19;;;16.97;58.90
64853;BME280;56050;55.558;-4.644;2023-05-18T09:07:45;102700.56;;;16.97;59.03
64853;BME280;56050;55.558;-4.644;2023-05-18T09:10:12;102690.09;;;17.02;58.81
64853;BME280;56050;55.558;-4.644;2023-05-18T09:12:41;102700.63;;;17.08;59.01
64853;BME280;56050;55.558;-4.644;2023-05-18T09:15:10;102697.91;;;17.11;58.56
64853;BME280;56050;55.558;-4.644;2023-05-18T09:17:36;102697.13;;;17.07;58.81
64853;BME280;56050;55.558;-4.644;2023-05-18T09:20:02;102692.47;;;17.11;58.52
64853;BME280;56050;55.558;-4.644;2023-05-18T09:22:30;102687.44;;;17.17;58.80
64853;BME280;56050;55.558;-4.644;2023-05-18T09:24:55;102687.84;;;17.22;58.70
64853;BME280;56050;55.558;-4.644;2023-05-18T09:27:22;102683.59;;;17.32;58.49
64853;BME280;56050;55.558;-4.644;2023-05-18T09:29:55;102689.88;;;17.39;58.58
64853;BME280;56050;55.558;-4.644;2023-05-18T09:32:21;102684.03;;;17.44;58.48
64853;BME280;56050;55.558;-4.644;2023-05-18T09:34:47;102689.09;;;17.49;58.39
64853;BME280;56050;55.558;-4.644;2023-05-18T09:37:20;102688.34;;;17.52;58.25
64853;BME280;56050;55.558;-4.644;2023-05-18T09:39:59;102679.44;;;17.59;58.37
64853;BME280;56050;55.558;-4.644;2023-05-18T09:42:39;102683.72;;;17.64;58.12
64853;BME280;56050;55.558;-4.644;2023-05-18T09:45:18;102678.66;;;17.66;58.03
64853;BME280;56050;55.558;-4.644;2023-05-18T09:47:44;102676.72;;;17.66;57.88
64853;BME280;56050;55.558;-4.644;2023-05-18T09:50:10;102674.78;;;17.67;57.80
64853;BME280;56050;55.558;-4.644;2023-05-18T09:52:42;102674.78;;;17.67;58.04
64853;BME280;56050;55.558;-4.644;2023-05-18T09:55:09;102675.13;;;17.65;57.80
64853;BME280;56050;55.558;-4.644;2023-05-18T09:57:43;102678.25;;;17.64;57.97
64853;BME280;56050;55.558;-4.644;2023-05-18T10:00:09;102673.22;;;17.69;57.86
64853;BME280;56050;55.558;-4.644;2023-05-18T10:02:44;102683.72;;;17.71;57.71
64853;BME280;56050;55.558;-4.644;2023-05-18T10:07:44;102681.81;;;17.78;57.94
64853;BME280;56050;55.558;-4.644;2023-05-18T10:10:11;102681.78;;;17.82;57.60
64853;BME280;56050;55.558;-4.644;2023-05-18T10:12:38;102683.72;;;17.81;57.60
64853;BME280;56050;55.558;-4.644;2023-05-18T10:15:08;102680.63;;;17.76;57.55
64853;BME280;56050;55.558;-4.644;2023-05-18T10:17:33;102680.25;;;17.81;57.80
64853;BME280;56050;55.558;-4.644;2023-05-18T10:20:03;102688.81;;;17.86;57.83
64853;BME280;56050;55.558;-4.644;2023-05-18T10:22:34;102690.38;;;17.91;57.30
64853;BME280;56050;55.558;-4.644;2023-05-18T10:25:02;102689.97;;;17.96;57.44
64853;BME280;56050;55.558;-4.644;2023-05-18T10:27:28;102676.72;;;17.98;57.42
64853;BME280;56050;55.558;-4.644;2023-05-18T10:29:57;102681.41;;;18.01;57.36
64853;BME280;56050;55.558;-4.644;2023-05-18T10:32:24;102686.88;;;18.08;57.36
64853;BME280;56050;55.558;-4.644;2023-05-18T10:34:54;102682.97;;;18.09;57.20
64853;BME280;56050;55.558;-4.644;2023-05-18T10:37:21;102684.53;;;18.06;56.93
64853;BME280;56050;55.558;-4.644;2023-05-18T10:39:49;102687.25;;;18.06;57.17
64853;BME280;56050;55.558;-4.644;2023-05-18T10:42:16;102685.69;;;18.09;57.19
64853;BME280;56050;55.558;-4.644;2023-05-18T10:44:44;102691.16;;;18.09;56.83
64853;BME280;56050;55.558;-4.644;2023-05-18T10:47:10;102690.78;;;18.07;57.24
64853;BME280;56050;55.558;-4.644;2023-05-18T10:49:36;102691.56;;;18.07;57.04
64853;BME280;56050;55.558;-4.644;2023-05-18T10:52:02;102688.44;;;18.02;56.65
64853;BME280;56050;55.558;-4.644;2023-05-18T10:54:28;102688.44;;;17.95;57.03
64853;BME280;56050;55.558;-4.644;2023-05-18T10:56:54;102686.50;;;17.92;57.09
64853;BME280;56050;55.558;-4.644;2023-05-18T10:59:20;102688.81;;;17.86;56.58
64853;BME280;56050;55.558;-4.644;2023-05-18T11:01:50;102697.75;;;17.80;56.94
64853;BME280;56050;55.558;-4.644;2023-05-18T11:04:26;102697.00;;;17.76;56.85
64853;BME280;56050;55.558;-4.644;2023-05-18T11:06:59;102693.88;;;17.77;57.14
64853;BME280;56050;55.558;-4.644;2023-05-18T11:09:27;102688.44;;;17.81;56.91
64853;BME280;56050;55.558;-4.644;2023-05-18T11:11:56;102699.34;;;17.81;56.78
64853;BME280;56050;55.558;-4.644;2023-05-18T11:14:28;102689.97;;;17.75;56.68
64853;BME280;56050;55.558;-4.644;2023-05-18T11:17:20;102695.03;;;17.73;56.84
64853;BME280;56050;55.558;-4.644;2023-05-18T11:22:48;102696.19;;;17.82;56.59
64853;BME280;56050;55.558;-4.644;2023-05-18T11:27:55;102693.47;;;17.93;56.53
64853;BME280;56050;55.558;-4.644;2023-05-18T11:38:50;102692.31;;;18.01;56.25
64853;BME280;56050;55.558;-4.644;2023-05-18T11:41:30;102696.22;;;17.96;56.56
64853;BME280;56050;55.558;-4.644;2023-05-18T11:46:49;102689.59;;;17.94;56.15
64853;BME280;56050;55.558;-4.644;2023-05-18T11:49:16;102690.38;;;18.05;56.42
64853;BME280;56050;55.558;-4.644;2023-05-18T11:51:55;102689.59;;;18.08;55.98
64853;BME280;56050;55.558;-4.644;2023-05-18T11:54:25;102691.94;;;18.13;55.95
64853;BME280;56050;55.558;-4.644;2023-05-18T11:56:54;102698.97;;;18.10;55.87
64853;BME280;56050;55.558;-4.644;2023-05-18T11:59:36;102695.84;;;18.08;55.93
64853;BME280;56050;55.558;-4.644;2023-05-18T12:02:03;102704.81;;;18.16;55.83
64853;BME280;56050;55.558;-4.644;2023-05-18T12:04:29;102703.63;;;18.20;55.63
64853;BME280;56050;55.558;-4.644;2023-05-18T12:06:56;102701.31;;;18.19;55.56
64853;BME280;56050;55.558;-4.644;2023-05-18T12:09:22;102709.88;;;18.17;55.63
64853;BME280;56050;55.558;-4.644;2023-05-18T12:11:49;102705.56;;;18.20;55.30
64853;BME280;56050;55.558;-4.644;2023-05-18T12:14:17;102705.56;;;18.20;55.53
64853;BME280;56050;55.558;-4.644;2023-05-18T12:16:42;102705.59;;;18.16;55.13
64853;BME280;56050;55.558;-4.644;2023-05-18T12:19:09;102697.78;;;18.08;55.48
64853;BME280;56050;55.558;-4.644;2023-05-18T12:21:37;102697.78;;;18.04;55.68
64853;BME280;56050;55.558;-4.644;2023-05-18T12:24:03;102703.63;;;18.06;55.76
64853;BME280;56050;55.558;-4.644;2023-05-18T12:26:29;102697.41;;;18.13;55.74
64853;BME280;56050;55.558;-4.644;2023-05-18T12:28:56;102697.78;;;18.22;55.57
64853;BME280;56050;55.558;-4.644;2023-05-18T12:31:23;102695.06;;;18.22;55.14
64853;BME280;56050;55.558;-4.644;2023-05-18T12:33:49;102690.38;;;18.15;55.14
64853;BME280;56050;55.558;-4.644;2023-05-18T12:36:15;102681.41;;;18.15;55.42
64853;BME280;56050;55.558;-4.644;2023-05-18T12:38:41;102681.41;;;18.18;55.35
64853;BME280;56050;55.558;-4.644;2023-05-18T12:41:06;102683.75;;;18.20;55.54
64853;BME280;56050;55.558;-4.644;2023-05-18T12:43:36;102680.63;;;18.18;55.40
64853;BME280;56050;55.558;-4.644;2023-05-18T12:46:02;102688.03;;;18.17;55.44
64853;BME280;56050;55.558;-4.644;2023-05-18T12:48:35;102683.38;;;18.18;55.25
64853;BME280;56050;55.558;-4.644;2023-05-18T12:51:01;102689.63;;;18.22;55.33
64853;BME280;56050;55.558;-4.644;2023-05-18T12:53:26;102693.50;;;18.32;55.49
64853;BME280;56050;55.558;-4.644;2023-05-18T12:56:04;102686.06;;;18.39;55.52
64853;BME280;56050;55.558;-4.644;2023-05-18T12:58:33;102679.44;;;18.40;55.17
64853;BME280;56050;55.558;-4.644;2023-05-18T13:01:09;102680.25;;;18.34;55.14
64853;BME280;56050;55.558;-4.644;2023-05-18T13:03:38;102683.75;;;18.27;55.36
64853;BME280;56050;55.558;-4.644;2023-05-18T13:06:05;102677.13;;;18.25;54.92
64853;BME280;56050;55.558;-4.644;2023-05-18T13:08:32;102683.00;;;18.19;55.41
64853;BME280;56050;55.558;-4.644;2023-05-18T13:11:05;102676.75;;;18.12;54.97
64853;BME280;56050;55.558;-4.644;2023-05-18T13:13:31;102679.09;;;18.03;55.31